RYR66ZD EPMO-EKCH
Flight info
| Callsign | RYR66ZD |
|---|---|
| Flight time | 1h 6m |
| Altitude | 36000 |
| Route | OLILA L621 ROE M743 TIDVU |
| Aircraft | B738/M-SDE2E3FGIJ1RWYZ/SB1 |
Departure
| Time | 2026-04-21 19:48 |
|---|---|
| Airport | Warsaw Modlin Airport (EPMO) |
Arrival
| Time | 2026-04-21 20:55 |
|---|---|
| Airport | Copenhagen Kastrup Airport (EKCH) |
| Time | Latitude | Longitude | Altitude | Speed | Heading |
|---|---|---|---|---|---|
| 2026-04-21 19:05 | 52.44731 | 20.65101 | 348 ft | 0 kts | 207° |
| 2026-04-21 19:36 | 52.44735 | 20.65104 | 348 ft | 2 kts | 208° |
| 2026-04-21 19:36 | 52.44747 | 20.65116 | 348 ft | 2 kts | 207° |
| 2026-04-21 19:37 | 52.44756 | 20.65123 | 348 ft | 1 kts | 193° |
| 2026-04-21 19:37 | 52.44770 | 20.65118 | 348 ft | 2 kts | 137° |
| 2026-04-21 19:37 | 52.44776 | 20.65097 | 348 ft | 1 kts | 90° |
| 2026-04-21 19:37 | 52.44775 | 20.65088 | 348 ft | 1 kts | 79° |
| 2026-04-21 19:38 | 52.44775 | 20.65083 | 348 ft | 0 kts | 82° |
| 2026-04-21 19:43 | 52.44777 | 20.65107 | 348 ft | 5 kts | 83° |
| 2026-04-21 19:43 | 52.44785 | 20.65201 | 348 ft | 11 kts | 82° |
| 2026-04-21 19:43 | 52.44799 | 20.65361 | 348 ft | 16 kts | 82° |
| 2026-04-21 19:43 | 52.44821 | 20.65584 | 348 ft | 21 kts | 82° |
| 2026-04-21 19:44 | 52.44845 | 20.65846 | 348 ft | 25 kts | 82° |
| 2026-04-21 19:44 | 52.44873 | 20.66148 | 348 ft | 27 kts | 80° |
| 2026-04-21 19:44 | 52.44901 | 20.66439 | 348 ft | 24 kts | 82° |
| 2026-04-21 19:44 | 52.44925 | 20.66694 | 348 ft | 19 kts | 82° |
| 2026-04-21 19:45 | 52.44943 | 20.66891 | 348 ft | 15 kts | 82° |
| 2026-04-21 19:45 | 52.44960 | 20.67035 | 348 ft | 11 kts | 63° |
| 2026-04-21 19:45 | 52.45013 | 20.67077 | 348 ft | 6 kts | 354° |
| 2026-04-21 19:45 | 52.45053 | 20.67069 | 348 ft | 4 kts | 353° |
| 2026-04-21 19:46 | 52.45085 | 20.67062 | 348 ft | 5 kts | 353° |
| 2026-04-21 19:46 | 52.45128 | 20.67053 | 348 ft | 7 kts | 353° |
| 2026-04-21 19:46 | 52.45180 | 20.67036 | 348 ft | 8 kts | 343° |
| 2026-04-21 19:46 | 52.45243 | 20.66998 | 348 ft | 10 kts | 340° |
| 2026-04-21 19:47 | 52.45285 | 20.66972 | 348 ft | 1 kts | 321° |
| 2026-04-21 19:47 | 52.45284 | 20.66935 | 348 ft | 3 kts | 263° |
| 2026-04-21 19:47 | 52.45282 | 20.66899 | 348 ft | 6 kts | 263° |
| 2026-04-21 19:47 | 52.45243 | 20.66466 | 348 ft | 71 kts | 261° |
| 2026-04-21 19:48 | 52.45137 | 20.65337 | 348 ft | 126 kts | 262° |
| 2026-04-21 19:48 | 52.44980 | 20.63663 | 398 ft | 166 kts | 262° |
| 2026-04-21 19:48 | 52.44787 | 20.61803 | 934 ft | 167 kts | 262° |
| 2026-04-21 19:48 | 52.44597 | 20.59919 | 1463 ft | 171 kts | 262° |
| 2026-04-21 19:49 | 52.44400 | 20.57918 | 1823 ft | 187 kts | 262° |
| 2026-04-21 19:49 | 52.44156 | 20.55716 | 2136 ft | 206 kts | 262° |
| 2026-04-21 19:49 | 52.43845 | 20.53336 | 2521 ft | 221 kts | 261° |
| 2026-04-21 19:49 | 52.43521 | 20.50742 | 2742 ft | 245 kts | 262° |
| 2026-04-21 19:50 | 52.43294 | 20.48858 | 2925 ft | 260 kts | 262° |
| 2026-04-21 19:50 | 52.42843 | 20.45049 | 3675 ft | 270 kts | 262° |
| 2026-04-21 19:50 | 52.42482 | 20.42037 | 4398 ft | 271 kts | 262° |
| 2026-04-21 19:50 | 52.42137 | 20.39021 | 5097 ft | 272 kts | 264° |
| 2026-04-21 19:51 | 52.41803 | 20.35955 | 5794 ft | 274 kts | 262° |
| 2026-04-21 19:51 | 52.41456 | 20.32916 | 6486 ft | 276 kts | 262° |
| 2026-04-21 19:51 | 52.41108 | 20.29852 | 7163 ft | 279 kts | 262° |
| 2026-04-21 19:51 | 52.40792 | 20.26707 | 7850 ft | 280 kts | 269° |
| 2026-04-21 19:52 | 52.41091 | 20.23624 | 8499 ft | 276 kts | 296° |
| 2026-04-21 19:52 | 52.42155 | 20.21036 | 9201 ft | 274 kts | 316° |
| 2026-04-21 19:52 | 52.43650 | 20.19182 | 9778 ft | 276 kts | 336° |
| 2026-04-21 19:52 | 52.45495 | 20.18341 | 10447 ft | 276 kts | 355° |
| 2026-04-21 19:53 | 52.47448 | 20.18045 | 10636 ft | 296 kts | 357° |
| 2026-04-21 19:53 | 52.49595 | 20.17778 | 10802 ft | 317 kts | 357° |
| 2026-04-21 19:53 | 52.51774 | 20.17486 | 11379 ft | 322 kts | 357° |
| 2026-04-21 19:53 | 52.54025 | 20.17170 | 12031 ft | 326 kts | 358° |
| 2026-04-21 19:54 | 52.56259 | 20.16857 | 12745 ft | 327 kts | 358° |
| 2026-04-21 19:54 | 52.58519 | 20.16546 | 13417 ft | 329 kts | 358° |
| 2026-04-21 19:54 | 52.60828 | 20.16227 | 14104 ft | 332 kts | 358° |
| 2026-04-21 19:54 | 52.63112 | 20.15908 | 14765 ft | 335 kts | 358° |
| 2026-04-21 19:55 | 52.65416 | 20.15584 | 15437 ft | 337 kts | 358° |
| 2026-04-21 19:55 | 52.67753 | 20.15256 | 16084 ft | 340 kts | 358° |
| 2026-04-21 19:55 | 52.70113 | 20.14926 | 16711 ft | 343 kts | 358° |
| 2026-04-21 19:55 | 52.72362 | 20.14609 | 17358 ft | 344 kts | 358° |
| 2026-04-21 19:56 | 52.74763 | 20.14268 | 17947 ft | 347 kts | 358° |
| 2026-04-21 19:56 | 52.77166 | 20.13928 | 18529 ft | 350 kts | 358° |
| 2026-04-21 19:56 | 52.79586 | 20.13317 | 19086 ft | 358 kts | 347° |
| 2026-04-21 19:56 | 52.81831 | 20.11514 | 19622 ft | 371 kts | 328° |
| 2026-04-21 19:57 | 52.83701 | 20.08511 | 20206 ft | 380 kts | 315° |
| 2026-04-21 19:57 | 52.85381 | 20.05115 | 20654 ft | 387 kts | 314° |
| 2026-04-21 19:57 | 52.87067 | 20.01647 | 21206 ft | 389 kts | 314° |
| 2026-04-21 19:57 | 52.88770 | 19.98182 | 21669 ft | 393 kts | 315° |
| 2026-04-21 19:58 | 52.90511 | 19.94660 | 22166 ft | 395 kts | 315° |
| 2026-04-21 19:58 | 52.92269 | 19.91126 | 22616 ft | 399 kts | 315° |
| 2026-04-21 19:58 | 52.94027 | 19.87590 | 23095 ft | 402 kts | 315° |
| 2026-04-21 19:58 | 52.95806 | 19.84023 | 23518 ft | 405 kts | 315° |
| 2026-04-21 19:59 | 52.97612 | 19.80397 | 23980 ft | 408 kts | 315° |
| 2026-04-21 19:59 | 52.99408 | 19.76794 | 24398 ft | 411 kts | 315° |
| 2026-04-21 19:59 | 53.01221 | 19.73155 | 24828 ft | 413 kts | 315° |
| 2026-04-21 19:59 | 53.03064 | 19.69449 | 25240 ft | 416 kts | 315° |
| 2026-04-21 20:00 | 53.04913 | 19.65726 | 25650 ft | 419 kts | 315° |
| 2026-04-21 20:00 | 53.06793 | 19.62011 | 26042 ft | 420 kts | 318° |
| 2026-04-21 20:00 | 53.08779 | 19.58545 | 26430 ft | 420 kts | 320° |
| 2026-04-21 20:00 | 53.10844 | 19.55083 | 26808 ft | 423 kts | 321° |
| 2026-04-21 20:01 | 53.12906 | 19.51619 | 27192 ft | 425 kts | 321° |
| 2026-04-21 20:01 | 53.14984 | 19.48108 | 27561 ft | 428 kts | 320° |
| 2026-04-21 20:01 | 53.17071 | 19.44570 | 27901 ft | 431 kts | 320° |
| 2026-04-21 20:01 | 53.19178 | 19.40979 | 28268 ft | 433 kts | 320° |
| 2026-04-21 20:02 | 53.20599 | 19.38556 | 28497 ft | 435 kts | 320° |
| 2026-04-21 20:02 | 53.23405 | 19.33715 | 28937 ft | 440 kts | 318° |
| 2026-04-21 20:02 | 53.25441 | 19.29901 | 29255 ft | 444 kts | 316° |
| 2026-04-21 20:02 | 53.27466 | 19.25985 | 29582 ft | 446 kts | 316° |
| 2026-04-21 20:03 | 53.29487 | 19.22071 | 29897 ft | 448 kts | 316° |
| 2026-04-21 20:03 | 53.31524 | 19.18134 | 30280 ft | 448 kts | 316° |
| 2026-04-21 20:03 | 53.33546 | 19.14229 | 30676 ft | 448 kts | 316° |
| 2026-04-21 20:03 | 53.35577 | 19.10303 | 31047 ft | 448 kts | 316° |
| 2026-04-21 20:04 | 53.37616 | 19.06358 | 31423 ft | 448 kts | 316° |
| 2026-04-21 20:04 | 53.39634 | 19.02450 | 31803 ft | 447 kts | 316° |
| 2026-04-21 20:04 | 53.41672 | 18.98496 | 32181 ft | 447 kts | 316° |
| 2026-04-21 20:04 | 53.43687 | 18.94583 | 32525 ft | 447 kts | 316° |
| 2026-04-21 20:05 | 53.45697 | 18.90671 | 32886 ft | 446 kts | 316° |
| 2026-04-21 20:05 | 53.47723 | 18.86719 | 33240 ft | 445 kts | 316° |
| 2026-04-21 20:05 | 53.49732 | 18.82800 | 33570 ft | 445 kts | 316° |
| 2026-04-21 20:05 | 53.51720 | 18.78817 | 33900 ft | 447 kts | 313° |
| 2026-04-21 20:06 | 53.53513 | 18.74601 | 34208 ft | 449 kts | 309° |
| 2026-04-21 20:06 | 53.55235 | 18.70255 | 34554 ft | 448 kts | 308° |
| 2026-04-21 20:06 | 53.56965 | 18.65856 | 34877 ft | 448 kts | 308° |
| 2026-04-21 20:06 | 53.58659 | 18.61543 | 35194 ft | 447 kts | 308° |
| 2026-04-21 20:07 | 53.60364 | 18.57188 | 35520 ft | 446 kts | 308° |
| 2026-04-21 20:07 | 53.62069 | 18.52834 | 35825 ft | 445 kts | 308° |
| 2026-04-21 20:07 | 53.63199 | 18.49941 | 36021 ft | 444 kts | 308° |
| 2026-04-21 20:07 | 53.65453 | 18.44163 | 36249 ft | 446 kts | 308° |
| 2026-04-21 20:08 | 53.67168 | 18.39757 | 36233 ft | 446 kts | 308° |
| 2026-04-21 20:08 | 53.70530 | 18.31092 | 36237 ft | 441 kts | 307° |
| 2026-04-21 20:09 | 53.73871 | 18.22458 | 36237 ft | 441 kts | 307° |
| 2026-04-21 20:09 | 53.77233 | 18.13750 | 36237 ft | 444 kts | 307° |
| 2026-04-21 20:10 | 53.80577 | 18.05048 | 36236 ft | 444 kts | 308° |
| 2026-04-21 20:10 | 53.83927 | 17.96305 | 36236 ft | 443 kts | 308° |
| 2026-04-21 20:11 | 53.87271 | 17.87548 | 36236 ft | 443 kts | 308° |
| 2026-04-21 20:11 | 53.90599 | 17.78802 | 36236 ft | 443 kts | 308° |
| 2026-04-21 20:12 | 53.93928 | 17.70027 | 36238 ft | 443 kts | 307° |
| 2026-04-21 20:12 | 53.96687 | 17.62726 | 36242 ft | 443 kts | 307° |
| 2026-04-21 20:13 | 54.00552 | 17.52458 | 36249 ft | 443 kts | 308° |
| 2026-04-21 20:13 | 54.03845 | 17.43673 | 36254 ft | 442 kts | 308° |
| 2026-04-21 20:14 | 54.07138 | 17.34866 | 36260 ft | 442 kts | 307° |
| 2026-04-21 20:14 | 54.10445 | 17.25994 | 36264 ft | 442 kts | 307° |
| 2026-04-21 20:15 | 54.13713 | 17.17195 | 36263 ft | 443 kts | 307° |
| 2026-04-21 20:15 | 54.16995 | 17.08324 | 36263 ft | 443 kts | 307° |
| 2026-04-21 20:16 | 54.20277 | 16.99420 | 36265 ft | 442 kts | 307° |
| 2026-04-21 20:16 | 54.23529 | 16.90565 | 36276 ft | 442 kts | 307° |
| 2026-04-21 20:17 | 54.26992 | 16.81956 | 36286 ft | 439 kts | 312° |
| 2026-04-21 20:17 | 54.30679 | 16.73658 | 36290 ft | 439 kts | 312° |
| 2026-04-21 20:18 | 54.33733 | 16.66730 | 36290 ft | 439 kts | 312° |
| 2026-04-21 20:18 | 54.37994 | 16.56984 | 36290 ft | 439 kts | 312° |
| 2026-04-21 20:19 | 54.41629 | 16.48615 | 36290 ft | 439 kts | 312° |
| 2026-04-21 20:19 | 54.45137 | 16.40501 | 36290 ft | 439 kts | 312° |
| 2026-04-21 20:20 | 54.48766 | 16.32073 | 36290 ft | 439 kts | 311° |
| 2026-04-21 20:20 | 54.52401 | 16.23601 | 36290 ft | 440 kts | 311° |
| 2026-04-21 20:21 | 54.55998 | 16.15187 | 36290 ft | 440 kts | 311° |
| 2026-04-21 20:21 | 54.59621 | 16.06679 | 36290 ft | 440 kts | 311° |
| 2026-04-21 20:22 | 54.63225 | 15.98187 | 36298 ft | 440 kts | 311° |
| 2026-04-21 20:22 | 54.68605 | 15.85455 | 36313 ft | 440 kts | 311° |
| 2026-04-21 20:23 | 54.72178 | 15.76962 | 36097 ft | 436 kts | 311° |
| 2026-04-21 20:23 | 54.73955 | 15.72706 | 35505 ft | 435 kts | 311° |
| 2026-04-21 20:23 | 54.75702 | 15.68479 | 34986 ft | 433 kts | 311° |
| 2026-04-21 20:24 | 54.77446 | 15.64241 | 34478 ft | 429 kts | 311° |
| 2026-04-21 20:24 | 54.79160 | 15.60075 | 33977 ft | 426 kts | 312° |
| 2026-04-21 20:24 | 54.80860 | 15.55943 | 33478 ft | 423 kts | 312° |
| 2026-04-21 20:24 | 54.82569 | 15.51791 | 32980 ft | 420 kts | 312° |
| 2026-04-21 20:25 | 54.84203 | 15.47815 | 32500 ft | 417 kts | 312° |
| 2026-04-21 20:25 | 54.85785 | 15.43959 | 32034 ft | 414 kts | 313° |
| 2026-04-21 20:25 | 54.87439 | 15.39922 | 31544 ft | 412 kts | 313° |
| 2026-04-21 20:25 | 54.89098 | 15.35866 | 31053 ft | 409 kts | 313° |
| 2026-04-21 20:26 | 54.90695 | 15.31816 | 30561 ft | 409 kts | 309° |
| 2026-04-21 20:26 | 54.92090 | 15.27577 | 30062 ft | 411 kts | 304° |
| 2026-04-21 20:26 | 54.93384 | 15.23134 | 29572 ft | 409 kts | 303° |
| 2026-04-21 20:26 | 54.94638 | 15.18744 | 29086 ft | 406 kts | 303° |
| 2026-04-21 20:27 | 54.95874 | 15.14380 | 28610 ft | 404 kts | 303° |
| 2026-04-21 20:27 | 54.97109 | 15.09993 | 28130 ft | 401 kts | 303° |
| 2026-04-21 20:27 | 54.98313 | 15.05694 | 27661 ft | 399 kts | 302° |
| 2026-04-21 20:27 | 54.99528 | 15.01336 | 27183 ft | 396 kts | 302° |
| 2026-04-21 20:28 | 55.00716 | 14.97062 | 26717 ft | 394 kts | 302° |
| 2026-04-21 20:28 | 55.01892 | 14.92816 | 26254 ft | 391 kts | 302° |
| 2026-04-21 20:28 | 55.03073 | 14.88539 | 25787 ft | 389 kts | 302° |
| 2026-04-21 20:28 | 55.04239 | 14.84311 | 25327 ft | 386 kts | 302° |
| 2026-04-21 20:29 | 55.05383 | 14.80146 | 24873 ft | 384 kts | 302° |
| 2026-04-21 20:29 | 55.06540 | 14.75934 | 24413 ft | 381 kts | 302° |
| 2026-04-21 20:29 | 55.07709 | 14.71866 | 23962 ft | 378 kts | 304° |
| 2026-04-21 20:29 | 55.08924 | 14.67757 | 23507 ft | 375 kts | 304° |
| 2026-04-21 20:30 | 55.10104 | 14.63766 | 23064 ft | 373 kts | 303° |
| 2026-04-21 20:30 | 55.11283 | 14.59769 | 22622 ft | 371 kts | 303° |
| 2026-04-21 20:30 | 55.12464 | 14.55750 | 22177 ft | 369 kts | 303° |
| 2026-04-21 20:30 | 55.13621 | 14.51801 | 21740 ft | 367 kts | 303° |
| 2026-04-21 20:31 | 55.14772 | 14.47864 | 21305 ft | 365 kts | 303° |
| 2026-04-21 20:31 | 55.15924 | 14.43913 | 20869 ft | 363 kts | 303° |
| 2026-04-21 20:31 | 55.17063 | 14.40002 | 20436 ft | 360 kts | 303° |
| 2026-04-21 20:31 | 55.18184 | 14.36147 | 20009 ft | 358 kts | 303° |
| 2026-04-21 20:32 | 55.19306 | 14.32281 | 19582 ft | 356 kts | 302° |
| 2026-04-21 20:32 | 55.20433 | 14.28393 | 19153 ft | 353 kts | 302° |
| 2026-04-21 20:32 | 55.21526 | 14.24615 | 18735 ft | 351 kts | 302° |
| 2026-04-21 20:32 | 55.22625 | 14.20809 | 18315 ft | 348 kts | 302° |
| 2026-04-21 20:33 | 55.23718 | 14.17018 | 17893 ft | 346 kts | 302° |
| 2026-04-21 20:33 | 55.24754 | 14.13415 | 17496 ft | 344 kts | 302° |
| 2026-04-21 20:33 | 55.25815 | 14.09718 | 17089 ft | 341 kts | 302° |
| 2026-04-21 20:33 | 55.26881 | 14.06005 | 16687 ft | 338 kts | 301° |
| 2026-04-21 20:34 | 55.27936 | 14.02319 | 16288 ft | 336 kts | 302° |
| 2026-04-21 20:34 | 55.28976 | 13.98690 | 15891 ft | 333 kts | 301° |
| 2026-04-21 20:34 | 55.30010 | 13.95079 | 15494 ft | 331 kts | 301° |
| 2026-04-21 20:34 | 55.31030 | 13.91500 | 15104 ft | 329 kts | 301° |
| 2026-04-21 20:35 | 55.32045 | 13.87934 | 14708 ft | 327 kts | 301° |
| 2026-04-21 20:35 | 55.33057 | 13.84371 | 14310 ft | 325 kts | 301° |
| 2026-04-21 20:35 | 55.34064 | 13.80827 | 13909 ft | 323 kts | 301° |
| 2026-04-21 20:35 | 55.35051 | 13.77347 | 13521 ft | 321 kts | 301° |
| 2026-04-21 20:36 | 55.36041 | 13.73851 | 13131 ft | 319 kts | 301° |
| 2026-04-21 20:36 | 55.37019 | 13.70389 | 12742 ft | 317 kts | 300° |
| 2026-04-21 20:36 | 55.37996 | 13.66927 | 12358 ft | 315 kts | 300° |
| 2026-04-21 20:36 | 55.38963 | 13.63498 | 11974 ft | 313 kts | 300° |
| 2026-04-21 20:37 | 55.39925 | 13.60079 | 11593 ft | 310 kts | 300° |
| 2026-04-21 20:37 | 55.40872 | 13.56691 | 11213 ft | 309 kts | 298° |
| 2026-04-21 20:37 | 55.41609 | 13.53154 | 10836 ft | 309 kts | 291° |
| 2026-04-21 20:37 | 55.42227 | 13.49590 | 10466 ft | 307 kts | 290° |
| 2026-04-21 20:38 | 55.42831 | 13.46039 | 10324 ft | 296 kts | 290° |
| 2026-04-21 20:38 | 55.43408 | 13.42659 | 10342 ft | 283 kts | 290° |
| 2026-04-21 20:38 | 55.43975 | 13.39356 | 10347 ft | 282 kts | 291° |
| 2026-04-21 20:38 | 55.44548 | 13.36035 | 10346 ft | 283 kts | 291° |
| 2026-04-21 20:39 | 55.45118 | 13.32720 | 10317 ft | 283 kts | 290° |
| 2026-04-21 20:39 | 55.45688 | 13.29378 | 9947 ft | 284 kts | 287° |
| 2026-04-21 20:39 | 55.45927 | 13.25968 | 9658 ft | 285 kts | 270° |
| 2026-04-21 20:39 | 55.45759 | 13.22534 | 9368 ft | 283 kts | 265° |
| 2026-04-21 20:40 | 55.45529 | 13.19090 | 9052 ft | 282 kts | 265° |
| 2026-04-21 20:40 | 55.45305 | 13.15667 | 8739 ft | 280 kts | 266° |
| 2026-04-21 20:40 | 55.45088 | 13.12266 | 8411 ft | 278 kts | 266° |
| 2026-04-21 20:40 | 55.44881 | 13.08967 | 8352 ft | 272 kts | 266° |
| 2026-04-21 20:41 | 55.44671 | 13.05559 | 8372 ft | 286 kts | 266° |
| 2026-04-21 20:41 | 55.44454 | 13.02052 | 8352 ft | 290 kts | 266° |
| 2026-04-21 20:41 | 55.44230 | 12.98484 | 8332 ft | 290 kts | 266° |
| 2026-04-21 20:41 | 55.44029 | 12.94975 | 8315 ft | 288 kts | 271° |
| 2026-04-21 20:42 | 55.44273 | 12.91531 | 8282 ft | 283 kts | 291° |
| 2026-04-21 20:42 | 55.44977 | 12.88342 | 8294 ft | 281 kts | 296° |
| 2026-04-21 20:42 | 55.45767 | 12.85187 | 8289 ft | 280 kts | 302° |
| 2026-04-21 20:42 | 55.46978 | 12.82563 | 8203 ft | 274 kts | 326° |
| 2026-04-21 20:43 | 55.48640 | 12.81017 | 7913 ft | 270 kts | 347° |
| 2026-04-21 20:43 | 55.50466 | 12.80693 | 7524 ft | 262 kts | 9° |
| 2026-04-21 20:43 | 55.52194 | 12.81446 | 7217 ft | 258 kts | 19° |
| 2026-04-21 20:43 | 55.53887 | 12.82454 | 6838 ft | 258 kts | 20° |
| 2026-04-21 20:44 | 55.55588 | 12.83475 | 6488 ft | 257 kts | 21° |
| 2026-04-21 20:44 | 55.57252 | 12.84624 | 6173 ft | 254 kts | 23° |
| 2026-04-21 20:44 | 55.58869 | 12.85806 | 5859 ft | 251 kts | 23° |
| 2026-04-21 20:44 | 55.60453 | 12.86961 | 5697 ft | 242 kts | 23° |
| 2026-04-21 20:45 | 55.61968 | 12.88058 | 5603 ft | 232 kts | 23° |
| 2026-04-21 20:45 | 55.63330 | 12.89453 | 5509 ft | 222 kts | 38° |
| 2026-04-21 20:45 | 55.64477 | 12.91228 | 5307 ft | 219 kts | 41° |
| 2026-04-21 20:45 | 55.65602 | 12.93048 | 5102 ft | 217 kts | 41° |
| 2026-04-21 20:46 | 55.66724 | 12.94827 | 4900 ft | 219 kts | 40° |
| 2026-04-21 20:46 | 55.67855 | 12.96606 | 4689 ft | 219 kts | 40° |
| 2026-04-21 20:46 | 55.68997 | 12.98395 | 4475 ft | 218 kts | 40° |
| 2026-04-21 20:46 | 55.70117 | 13.00148 | 4264 ft | 217 kts | 39° |
| 2026-04-21 20:47 | 55.71256 | 13.01932 | 4051 ft | 217 kts | 39° |
| 2026-04-21 20:47 | 55.72406 | 13.03564 | 3970 ft | 212 kts | 26° |
| 2026-04-21 20:47 | 55.73842 | 13.04216 | 3914 ft | 215 kts | 5° |
| 2026-04-21 20:47 | 55.75342 | 13.04431 | 3709 ft | 216 kts | 4° |
| 2026-04-21 20:48 | 55.76836 | 13.04635 | 3496 ft | 213 kts | 4° |
| 2026-04-21 20:48 | 55.78293 | 13.04845 | 3294 ft | 209 kts | 4° |
| 2026-04-21 20:48 | 55.79723 | 13.05012 | 3090 ft | 206 kts | 356° |
| 2026-04-21 20:48 | 55.81010 | 13.04128 | 2955 ft | 199 kts | 316° |
| 2026-04-21 20:49 | 55.81547 | 13.01959 | 3006 ft | 199 kts | 272° |
| 2026-04-21 20:49 | 55.81231 | 12.99501 | 2980 ft | 208 kts | 255° |
| 2026-04-21 20:49 | 55.80753 | 12.97094 | 2961 ft | 206 kts | 255° |
| 2026-04-21 20:49 | 55.80161 | 12.94757 | 2959 ft | 209 kts | 239° |
| 2026-04-21 20:50 | 55.79192 | 12.92810 | 2974 ft | 212 kts | 226° |
| 2026-04-21 20:50 | 55.78107 | 12.91057 | 2974 ft | 213 kts | 224° |
| 2026-04-21 20:50 | 55.76998 | 12.89313 | 2974 ft | 212 kts | 224° |
| 2026-04-21 20:50 | 55.75895 | 12.87584 | 2977 ft | 212 kts | 224° |
| 2026-04-21 20:51 | 55.74788 | 12.85850 | 2980 ft | 212 kts | 224° |
| 2026-04-21 20:51 | 55.73670 | 12.84101 | 2923 ft | 213 kts | 224° |
| 2026-04-21 20:51 | 55.72596 | 12.82423 | 2647 ft | 200 kts | 224° |
| 2026-04-21 20:51 | 55.71583 | 12.80840 | 2394 ft | 190 kts | 224° |
| 2026-04-21 20:52 | 55.70605 | 12.79313 | 2147 ft | 188 kts | 224° |
| 2026-04-21 20:52 | 55.69637 | 12.77801 | 1894 ft | 186 kts | 224° |
| 2026-04-21 20:52 | 55.68685 | 12.76318 | 1650 ft | 176 kts | 224° |
| 2026-04-21 20:52 | 55.67804 | 12.74944 | 1413 ft | 160 kts | 224° |
| 2026-04-21 20:53 | 55.66999 | 12.73691 | 1215 ft | 151 kts | 224° |
| 2026-04-21 20:53 | 55.66213 | 12.72468 | 1004 ft | 150 kts | 223° |
| 2026-04-21 20:53 | 55.65434 | 12.71255 | 815 ft | 150 kts | 224° |
| 2026-04-21 20:53 | 55.64646 | 12.70018 | 604 ft | 149 kts | 223° |
| 2026-04-21 20:54 | 55.63873 | 12.68826 | 380 ft | 150 kts | 224° |
| 2026-04-21 20:54 | 55.63096 | 12.67621 | 190 ft | 147 kts | 224° |
| 2026-04-21 20:54 | 55.62326 | 12.66422 | 39 ft | 150 kts | 224° |
| 2026-04-21 20:54 | 55.61623 | 12.65331 | 16 ft | 107 kts | 221° |
| 2026-04-21 20:55 | 55.61210 | 12.64696 | 16 ft | 63 kts | 221° |
| 2026-04-21 20:55 | 55.60909 | 12.64228 | 16 ft | 51 kts | 222° |
| 2026-04-21 20:55 | 55.60739 | 12.63942 | 16 ft | 22 kts | 240° |
| 2026-04-21 20:55 | 55.60715 | 12.63776 | 16 ft | 12 kts | 275° |
| 2026-04-21 20:56 | 55.60749 | 12.63657 | 16 ft | 9 kts | 310° |
| 2026-04-21 20:56 | 55.60779 | 12.63594 | 16 ft | 3 kts | 310° |
| 2026-04-21 20:56 | 55.60808 | 12.63575 | 16 ft | 6 kts | 15° |
| 2026-04-21 20:56 | 55.60875 | 12.63649 | 16 ft | 15 kts | 33° |
| 2026-04-21 20:57 | 55.60990 | 12.63781 | 17 ft | 25 kts | 32° |
| 2026-04-21 20:57 | 55.61138 | 12.63953 | 17 ft | 26 kts | 33° |
| 2026-04-21 20:57 | 55.61297 | 12.64132 | 16 ft | 26 kts | 32° |
| 2026-04-21 20:57 | 55.61445 | 12.64309 | 16 ft | 26 kts | 31° |
| 2026-04-21 20:58 | 55.61596 | 12.64477 | 16 ft | 25 kts | 33° |
| 2026-04-21 20:58 | 55.61745 | 12.64650 | 16 ft | 23 kts | 33° |
| 2026-04-21 20:58 | 55.61872 | 12.64796 | 16 ft | 20 kts | 33° |
| 2026-04-21 20:58 | 55.61999 | 12.64941 | 16 ft | 23 kts | 32° |
| 2026-04-21 20:59 | 55.62125 | 12.65085 | 16 ft | 19 kts | 33° |
| 2026-04-21 20:59 | 55.62227 | 12.65193 | 17 ft | 14 kts | 15° |
| 2026-04-21 20:59 | 55.62311 | 12.65200 | 19 ft | 9 kts | 358° |
| 2026-04-21 20:59 | 55.62390 | 12.65196 | 19 ft | 12 kts | 358° |
| 2026-04-21 21:00 | 55.62440 | 12.65301 | 19 ft | 14 kts | 94° |
| 2026-04-21 21:00 | 55.62441 | 12.65497 | 19 ft | 17 kts | 89° |
| 2026-04-21 21:00 | 55.62443 | 12.65652 | 19 ft | 7 kts | 89° |
| 2026-04-21 21:00 | 55.62463 | 12.65701 | 18 ft | 5 kts | 10° |
| 2026-04-21 21:01 | 55.62499 | 12.65702 | 19 ft | 5 kts | 0° |
| 2026-04-21 21:01 | 55.62524 | 12.65702 | 19 ft | 1 kts | 358° |
| 2026-04-21 21:01 | 55.62526 | 12.65702 | 19 ft | 0 kts | 358° |